createdAt,value
2019-05-14T00:01:06.851Z,85.60
2019-05-14T00:03:38.545Z,85.60
2019-05-14T00:06:11.488Z,85.60
2019-05-14T00:08:42.917Z,85.70
2019-05-14T00:11:15.334Z,85.50
2019-05-14T00:13:47.025Z,85.60
2019-05-14T00:16:18.335Z,85.60
2019-05-14T00:18:51.229Z,85.60
2019-05-14T00:21:22.806Z,85.60
2019-05-14T00:23:54.663Z,85.60
2019-05-14T00:26:26.095Z,85.60
2019-05-14T00:28:57.888Z,85.60
2019-05-14T00:31:31.652Z,85.60
2019-05-14T00:34:02.721Z,85.50
2019-05-14T00:36:34.496Z,85.50
2019-05-14T00:39:06.451Z,85.70
2019-05-14T00:41:38.152Z,85.70
2019-05-14T00:44:09.417Z,85.70
2019-05-14T00:46:41.208Z,85.60
2019-05-14T00:49:13.019Z,86.10
2019-05-14T00:51:44.633Z,85.50
2019-05-14T00:54:15.882Z,85.50
2019-05-14T00:56:47.480Z,85.50
2019-05-14T00:59:19.157Z,85.60
2019-05-14T01:01:51.588Z,85.60
2019-05-14T01:04:23.573Z,85.50
2019-05-14T01:06:54.853Z,85.60
2019-05-14T01:09:26.561Z,85.50
2019-05-14T01:11:58.510Z,85.50
2019-05-14T01:14:31.732Z,85.50
2019-05-14T01:17:03.532Z,85.50
2019-05-14T01:19:35.132Z,85.50
2019-05-14T01:22:07.787Z,85.60
2019-05-14T01:24:41.452Z,85.60
2019-05-14T01:27:12.705Z,85.60
2019-05-14T01:29:44.161Z,85.50
2019-05-14T01:32:15.710Z,85.50
2019-05-14T01:34:47.094Z,85.50
2019-05-14T01:37:18.958Z,85.50
2019-05-14T01:39:51.944Z,85.60
2019-05-14T01:42:24.033Z,85.50
2019-05-14T01:44:56.564Z,85.50
2019-05-14T01:47:27.952Z,85.50
2019-05-14T01:50:01.948Z,85.60
2019-05-14T01:52:33.024Z,85.70
2019-05-14T01:55:06.098Z,85.60
2019-05-14T01:57:37.516Z,85.60
2019-05-14T02:00:11.336Z,85.70
2019-05-14T02:02:42.763Z,85.60
2019-05-14T02:05:14.135Z,85.60
2019-05-14T02:07:45.456Z,85.70
2019-05-14T02:10:17.325Z,85.60
2019-05-14T02:12:51.329Z,85.70
2019-05-14T02:15:39.807Z,85.70
2019-05-14T02:18:08.537Z,85.70
2019-05-14T02:20:41.555Z,85.60
2019-05-14T02:23:13.207Z,85.80
2019-05-14T02:25:44.989Z,85.80
2019-05-14T02:28:16.360Z,85.80
2019-05-14T02:30:57.012Z,85.80
2019-05-14T02:33:21.030Z,85.90
2019-05-14T02:35:52.348Z,85.80
2019-05-14T02:38:24.123Z,85.80
2019-05-14T02:40:59.639Z,85.80
2019-05-14T02:43:29.720Z,85.80
2019-05-14T02:46:11.424Z,85.50
2019-05-14T02:48:34.482Z,85.80
2019-05-14T02:51:06.058Z,85.90
2019-05-14T02:53:39.156Z,85.90
2019-05-14T02:56:10.695Z,85.90
2019-05-14T02:58:42.108Z,86.00
2019-05-14T03:01:13.493Z,85.90
2019-05-14T03:03:45.151Z,85.90
2019-05-14T03:06:19.750Z,86.00
2019-05-14T03:08:49.966Z,85.90
2019-05-14T03:11:21.617Z,85.90
2019-05-14T03:13:53.413Z,86.00
2019-05-14T03:16:30.925Z,85.90
2019-05-14T03:18:59.575Z,85.90
2019-05-14T03:21:31.608Z,86.10
2019-05-14T03:24:02.904Z,86.10
2019-05-14T03:26:34.796Z,86.10
2019-05-14T03:29:09.724Z,86.00
2019-05-14T03:31:42.997Z,85.90
2019-05-14T03:34:14.441Z,85.90
2019-05-14T03:36:51.773Z,85.80
2019-05-14T03:39:19.961Z,85.80
2019-05-14T03:41:51.587Z,85.70
2019-05-14T03:44:23.453Z,85.70
2019-05-14T03:46:58.475Z,85.70
2019-05-14T03:49:28.976Z,85.70
2019-05-14T03:52:00.694Z,85.60
2019-05-14T03:54:32.209Z,85.80
2019-05-14T03:57:03.602Z,85.80
2019-05-14T03:59:35.401Z,85.80
2019-05-14T04:02:09.794Z,85.90
2019-05-14T04:04:41.393Z,85.80
2019-05-14T04:07:13.882Z,85.70
2019-05-14T04:09:49.089Z,86.10
2019-05-14T04:12:20.670Z,85.80
2019-05-14T04:14:52.732Z,85.70
2019-05-14T04:17:33.728Z,85.80
2019-05-14T04:19:59.922Z,86.30
2019-05-14T04:22:31.800Z,85.70
2019-05-14T04:25:05.392Z,85.70
2019-05-14T04:27:40.056Z,85.50
2019-05-14T04:30:11.607Z,85.50
2019-05-14T04:32:43.389Z,85.50
2019-05-14T04:35:14.717Z,85.40
2019-05-14T04:37:49.367Z,85.30
2019-05-14T04:40:19.542Z,85.30
2019-05-14T04:42:50.832Z,85.40
2019-05-14T04:45:22.057Z,85.40
2019-05-14T04:47:53.952Z,85.40
2019-05-14T04:50:25.950Z,85.30
2019-05-14T04:52:59.874Z,85.30
2019-05-14T04:55:31.505Z,85.30
2019-05-14T04:58:03.023Z,85.20
2019-05-14T05:00:34.331Z,85.90
2019-05-14T05:03:08.456Z,85.30
2019-05-14T05:05:39.619Z,85.30
2019-05-14T05:08:14.232Z,85.30
2019-05-14T05:10:44.822Z,85.30
2019-05-14T05:13:18.471Z,85.40
2019-05-14T05:15:49.861Z,85.30
2019-05-14T05:18:22.436Z,85.10
2019-05-14T05:20:54.709Z,85.10
2019-05-14T05:23:28.203Z,85.10
2019-05-14T05:25:59.354Z,85.70
2019-05-14T05:28:31.426Z,85.00
2019-05-14T05:31:04.098Z,85.50
2019-05-14T05:33:38.219Z,85.10
2019-05-14T05:36:09.724Z,84.90
2019-05-14T05:38:41.564Z,84.80
2019-05-14T05:41:12.919Z,84.80
2019-05-14T05:43:44.157Z,84.80
2019-05-14T05:46:15.422Z,84.70
2019-05-14T05:48:48.221Z,84.70
2019-05-14T05:51:19.874Z,84.60
2019-05-14T05:53:51.547Z,84.60
2019-05-14T05:56:22.946Z,84.50
2019-05-14T05:58:54.383Z,84.40
2019-05-14T06:01:39.349Z,84.40
2019-05-14T06:03:59.645Z,84.20
2019-05-14T06:06:31.137Z,84.10
2019-05-14T06:09:04.828Z,83.80
2019-05-14T06:11:38.128Z,83.60
2019-05-14T06:14:10.112Z,83.50
2019-05-14T06:16:41.657Z,83.20
2019-05-14T06:19:13.118Z,83.00
2019-05-14T06:21:44.626Z,82.80
2019-05-14T06:24:16.326Z,82.80
2019-05-14T06:26:48.979Z,82.80
2019-05-14T06:29:20.400Z,82.70
2019-05-14T06:31:51.769Z,82.80
2019-05-14T06:34:22.974Z,82.80
2019-05-14T06:36:54.660Z,82.80
2019-05-14T06:39:28.139Z,82.90
2019-05-14T06:41:59.495Z,83.00
2019-05-14T06:44:31.101Z,83.10
2019-05-14T06:47:02.384Z,83.30
2019-05-14T06:49:33.676Z,83.10
2019-05-14T06:52:05.175Z,82.90
2019-05-14T06:54:38.782Z,82.70
2019-05-14T06:57:09.621Z,82.40
2019-05-14T06:59:40.970Z,82.20
2019-05-14T07:02:12.758Z,82.00
2019-05-14T07:04:44.161Z,81.70
2019-05-14T07:07:15.624Z,81.50
2019-05-14T07:09:48.890Z,81.20
2019-05-14T07:12:20.173Z,80.90
2019-05-14T07:14:51.746Z,80.80
2019-05-14T07:17:23.275Z,80.80
2019-05-14T07:19:55.058Z,80.60
2019-05-14T07:22:28.124Z,80.80
2019-05-14T07:24:59.681Z,81.00
2019-05-14T07:27:31.264Z,81.10
2019-05-14T07:30:05.202Z,80.90
2019-05-14T07:32:39.219Z,80.50
2019-05-14T07:35:11.425Z,80.30
2019-05-14T07:37:42.709Z,79.90
2019-05-14T07:40:14.747Z,79.70
2019-05-14T07:42:48.571Z,79.60
2019-05-14T07:45:19.660Z,79.60
2019-05-14T07:47:51.116Z,79.90
2019-05-14T07:50:22.577Z,80.10
2019-05-14T07:52:53.958Z,80.20
2019-05-14T07:55:25.233Z,80.20
2019-05-14T07:57:58.567Z,80.60
2019-05-14T08:00:30.109Z,80.90
2019-05-14T08:03:01.578Z,81.20
2019-05-14T08:05:32.858Z,81.40
2019-05-14T08:08:04.341Z,81.20
2019-05-14T08:10:35.835Z,80.80
2019-05-14T08:13:08.448Z,80.50
2019-05-14T08:15:40.273Z,80.20
2019-05-14T08:18:11.955Z,80.00
2019-05-14T08:20:43.684Z,79.80
2019-05-14T08:23:15.235Z,79.80
2019-05-14T08:25:48.108Z,79.90
2019-05-14T08:28:21.289Z,80.20
2019-05-14T08:30:52.985Z,80.30
2019-05-14T08:33:24.304Z,80.40
2019-05-14T08:35:58.139Z,80.50
2019-05-14T08:38:29.765Z,80.70
2019-05-14T08:41:01.219Z,81.00
2019-05-14T08:43:32.624Z,81.10
2019-05-14T08:46:04.141Z,81.20
2019-05-14T08:48:35.594Z,81.40
2019-05-14T08:51:09.110Z,81.50
2019-05-14T08:53:40.385Z,81.60
2019-05-14T08:56:12.318Z,81.80
2019-05-14T08:58:43.929Z,81.80
2019-05-14T09:01:15.547Z,81.60
2019-05-14T09:03:49.133Z,81.70
2019-05-14T09:06:21.368Z,81.40
2019-05-14T09:08:52.953Z,81.90
2019-05-14T09:11:26.104Z,81.10
2019-05-14T09:13:59.364Z,81.00
2019-05-14T09:16:42.756Z,81.10
2019-05-14T09:19:04.765Z,81.10
2019-05-14T09:21:39.522Z,81.30
2019-05-14T09:24:09.681Z,81.60
2019-05-14T09:26:41.384Z,81.70
2019-05-14T09:29:22.515Z,81.80
2019-05-14T09:31:46.318Z,81.70
2019-05-14T09:34:19.605Z,81.20
2019-05-14T09:36:50.978Z,80.60
2019-05-14T09:39:22.596Z,80.70
2019-05-14T09:41:54.017Z,80.10
2019-05-14T09:44:25.765Z,79.50
2019-05-14T09:46:59.150Z,79.40
2019-05-14T09:49:30.563Z,79.60
2019-05-14T09:52:01.841Z,79.70
2019-05-14T09:54:33.065Z,79.70
2019-05-14T09:57:04.480Z,79.90
2019-05-14T09:59:38.293Z,79.70
2019-05-14T10:02:09.325Z,80.10
2019-05-14T10:04:41.044Z,80.40
2019-05-14T10:07:15.353Z,80.40
2019-05-14T10:09:45.947Z,80.30
2019-05-14T10:12:17.297Z,80.60
2019-05-14T10:14:48.853Z,80.00
2019-05-14T10:17:20.374Z,79.80
2019-05-14T10:19:51.662Z,80.30
2019-05-14T10:22:23.071Z,81.00
2019-05-14T10:24:54.498Z,81.00
2019-05-14T10:27:28.286Z,80.90
2019-05-14T10:29:59.538Z,80.90
2019-05-14T10:32:30.777Z,80.60
2019-05-14T10:35:02.997Z,80.50
2019-05-14T10:37:34.362Z,80.70
2019-05-14T10:40:06.850Z,80.80
2019-05-14T10:42:40.373Z,80.90
2019-05-14T10:45:13.082Z,81.00
2019-05-14T10:47:45.301Z,81.00
2019-05-14T10:50:18.287Z,81.00
2019-05-14T10:52:50.171Z,81.00
2019-05-14T10:55:21.834Z,81.20
2019-05-14T10:57:54.403Z,81.60
2019-05-14T11:00:28.252Z,82.10
2019-05-14T11:02:59.118Z,81.80
2019-05-14T11:05:30.465Z,81.30
2019-05-14T11:08:02.351Z,81.10
2019-05-14T11:10:33.985Z,81.00
2019-05-14T11:13:08.776Z,80.90
2019-05-14T11:15:40.176Z,80.60
2019-05-14T11:18:11.532Z,80.50
2019-05-14T11:20:43.008Z,80.30
2019-05-14T11:23:14.280Z,80.80
2019-05-14T11:25:45.541Z,81.20
2019-05-14T11:28:19.128Z,81.00
2019-05-14T11:30:50.388Z,81.10
2019-05-14T11:33:21.902Z,81.30
2019-05-14T11:35:53.288Z,81.40
2019-05-14T11:38:33.871Z,81.40
2019-05-14T11:40:58.935Z,81.40
2019-05-14T11:43:30.512Z,81.90
2019-05-14T11:46:02.360Z,82.20
2019-05-14T11:48:34.122Z,82.50
2019-05-14T11:51:08.779Z,82.60
2019-05-14T11:53:40.156Z,82.50
2019-05-14T11:56:11.438Z,82.60
2019-05-14T11:58:43.166Z,82.60
2019-05-14T12:01:14.840Z,82.90
2019-05-14T12:03:46.242Z,82.90
2019-05-14T12:06:18.588Z,82.60
2019-05-14T12:08:50.124Z,82.50
2019-05-14T12:11:21.366Z,82.10
2019-05-14T12:13:52.886Z,82.10
2019-05-14T12:16:24.102Z,82.00
2019-05-14T12:18:55.771Z,81.90
2019-05-14T12:21:28.838Z,81.90
2019-05-14T12:24:04.278Z,81.90
2019-05-14T12:26:33.617Z,81.70
2019-05-14T12:29:04.830Z,81.90
2019-05-14T12:31:38.406Z,82.10
2019-05-14T12:34:09.732Z,82.00
2019-05-14T12:36:41.350Z,82.30
2019-05-14T12:39:12.870Z,82.00
2019-05-14T12:41:44.385Z,82.90
2019-05-14T12:44:16.002Z,82.30
2019-05-14T12:46:48.956Z,82.00
2019-05-14T12:49:20.492Z,82.30
2019-05-14T12:51:52.150Z,82.50
2019-05-14T12:54:23.723Z,82.70
2019-05-14T12:56:55.303Z,82.80
2019-05-14T12:59:28.514Z,82.80
2019-05-14T13:04:38.798Z,82.80
2019-05-14T13:07:10.480Z,82.90
2019-05-14T13:09:42.375Z,83.10
2019-05-14T13:12:13.773Z,82.90
2019-05-14T13:14:45.269Z,82.50
2019-05-14T13:17:18.751Z,82.70
2019-05-14T13:19:50.352Z,82.90
2019-05-14T13:22:38.022Z,83.00
2019-05-14T13:24:55.453Z,83.20
2019-05-14T13:27:28.767Z,83.00
2019-05-14T13:29:59.940Z,82.90
2019-05-14T13:32:31.305Z,83.20
2019-05-14T13:35:09.012Z,83.40
2019-05-14T13:37:39.894Z,84.10
2019-05-14T13:40:13.772Z,84.20
2019-05-14T13:42:45.072Z,83.60
2019-05-14T13:45:19.130Z,83.70
2019-05-14T13:47:50.833Z,83.80
2019-05-14T13:50:22.657Z,83.50
2019-05-14T13:53:03.138Z,83.50
2019-05-14T13:55:30.622Z,83.70
2019-05-14T13:58:02.233Z,83.80
2019-05-14T14:00:33.434Z,84.10
2019-05-14T14:03:04.832Z,84.10
2019-05-14T14:05:38.920Z,84.00
2019-05-14T14:08:09.418Z,83.90
2019-05-14T14:10:46.235Z,84.50
2019-05-14T14:13:14.932Z,83.80
2019-05-14T14:15:48.759Z,83.90
2019-05-14T14:18:21.043Z,83.90
2019-05-14T14:20:52.751Z,83.70
2019-05-14T14:23:28.227Z,84.00
2019-05-14T14:25:59.597Z,84.10
2019-05-14T14:28:30.710Z,84.10
2019-05-14T14:31:02.170Z,84.10
2019-05-14T14:33:33.505Z,84.10
2019-05-14T14:36:04.766Z,84.10
2019-05-14T14:38:36.305Z,84.30
2019-05-14T14:41:10.135Z,84.40
2019-05-14T14:43:43.202Z,84.30
2019-05-14T14:46:14.667Z,84.30
2019-05-14T14:48:49.016Z,84.40
2019-05-14T14:51:19.689Z,84.30
2019-05-14T14:53:59.884Z,84.30
2019-05-14T14:56:24.779Z,84.40
2019-05-14T14:58:56.103Z,84.20
2019-05-14T15:01:30.186Z,84.10
2019-05-14T15:04:01.945Z,84.10
2019-05-14T15:06:33.225Z,84.10
2019-05-14T15:09:04.918Z,84.00
2019-05-14T15:11:39.615Z,84.00
2019-05-14T15:14:10.258Z,83.90
2019-05-14T15:16:41.489Z,83.90
2019-05-14T15:19:12.773Z,83.90
2019-05-14T15:21:44.033Z,83.90
2019-05-14T15:24:16.025Z,84.00
2019-05-14T15:26:47.595Z,84.10
2019-05-14T15:29:19.196Z,84.00
2019-05-14T15:31:50.503Z,84.10
2019-05-14T15:34:21.915Z,84.10
2019-05-14T15:36:53.671Z,84.10
2019-05-14T15:39:26.043Z,84.20
2019-05-14T15:42:04.012Z,84.20
2019-05-14T15:44:47.552Z,84.20
2019-05-14T15:47:04.138Z,84.20
2019-05-14T15:49:35.764Z,84.20
2019-05-14T15:52:08.441Z,84.20
2019-05-14T15:54:46.740Z,84.20
2019-05-14T15:57:12.900Z,84.30
2019-05-14T15:59:44.324Z,84.40
2019-05-14T16:02:15.822Z,84.30
2019-05-14T16:04:47.742Z,84.30
2019-05-14T16:07:19.005Z,84.40
2019-05-14T16:09:50.557Z,84.50
2019-05-14T16:12:21.943Z,84.50
2019-05-14T16:14:54.155Z,84.40
2019-05-14T16:17:27.129Z,84.90
2019-05-14T16:19:58.608Z,84.40
2019-05-14T16:22:30.048Z,84.50
2019-05-14T16:25:01.699Z,84.40
2019-05-14T16:27:32.973Z,84.40
2019-05-14T16:30:04.926Z,84.40
2019-05-14T16:32:36.334Z,84.50
2019-05-14T16:35:09.033Z,84.70
2019-05-14T16:37:40.776Z,84.60
2019-05-14T16:40:12.128Z,84.70
2019-05-14T16:42:43.715Z,84.60
2019-05-14T16:45:15.337Z,84.70
2019-05-14T16:47:47.093Z,84.70
2019-05-14T16:50:18.988Z,84.70
2019-05-14T16:52:51.302Z,84.90
2019-05-14T16:55:27.064Z,84.90
2019-05-14T16:57:58.106Z,84.90
2019-05-14T17:00:29.502Z,84.90
2019-05-14T17:03:00.920Z,85.00
2019-05-14T17:05:34.369Z,85.10
2019-05-14T17:08:09.942Z,85.00
2019-05-14T17:10:41.857Z,85.10
2019-05-14T17:13:13.268Z,85.10
2019-05-14T17:15:47.966Z,85.60
2019-05-14T17:18:19.653Z,85.10
2019-05-14T17:20:51.606Z,85.20
2019-05-14T17:23:29.421Z,85.30
2019-05-14T17:26:00.916Z,85.30
2019-05-14T17:28:32.390Z,85.20
2019-05-14T17:31:03.848Z,85.40
2019-05-14T17:33:35.425Z,85.30
2019-05-14T17:36:09.255Z,85.30
2019-05-14T17:38:40.469Z,85.30
2019-05-14T17:41:11.666Z,85.40
2019-05-14T17:43:43.196Z,85.40
2019-05-14T17:46:14.524Z,85.50
2019-05-14T17:48:48.436Z,85.60
2019-05-14T17:51:19.393Z,85.50
2019-05-14T17:53:51.145Z,85.40
2019-05-14T17:56:23.039Z,85.40
2019-05-14T17:58:54.564Z,85.50
2019-05-14T18:01:28.780Z,85.50
2019-05-14T18:03:59.333Z,85.50
2019-05-14T18:06:43.762Z,85.40
2019-05-14T18:09:15.014Z,85.50
2019-05-14T18:11:49.035Z,85.50
2019-05-14T18:14:20.635Z,85.50
2019-05-14T18:16:51.904Z,85.50
2019-05-14T18:19:23.629Z,85.60
2019-05-14T18:21:55.110Z,85.60
2019-05-14T18:24:28.586Z,85.70
2019-05-14T18:26:59.519Z,85.70
2019-05-14T18:29:30.763Z,85.70
2019-05-14T18:32:02.382Z,85.70
2019-05-14T18:34:33.865Z,85.80
2019-05-14T18:37:05.342Z,85.80
2019-05-14T18:39:39.277Z,85.80
2019-05-14T18:42:09.862Z,85.90
2019-05-14T18:44:41.664Z,86.00
2019-05-14T18:47:16.612Z,86.10
2019-05-14T18:49:48.642Z,85.90
2019-05-14T18:52:20.118Z,86.00
2019-05-14T18:54:51.565Z,85.90
2019-05-14T18:57:22.776Z,85.90
2019-05-14T18:59:54.503Z,85.90
2019-05-14T19:02:26.222Z,85.80
2019-05-14T19:04:58.028Z,85.90
2019-05-14T19:07:30.723Z,85.90
2019-05-14T19:10:09.300Z,85.90
2019-05-14T19:12:40.536Z,86.00
2019-05-14T19:15:12.116Z,86.00
2019-05-14T19:17:43.505Z,86.00
2019-05-14T19:20:15.222Z,86.00
2019-05-14T19:22:48.911Z,85.90
2019-05-14T19:25:20.042Z,85.90
2019-05-14T19:27:51.443Z,85.90
2019-05-14T19:30:22.882Z,86.00
2019-05-14T19:32:54.362Z,86.00
2019-05-14T19:35:28.533Z,86.20
2019-05-14T19:37:59.565Z,86.20
2019-05-14T19:40:31.260Z,86.40
2019-05-14T19:43:02.930Z,86.30
2019-05-14T19:45:34.198Z,86.40
2019-05-14T19:48:08.037Z,86.30
2019-05-14T19:50:39.048Z,87.00
2019-05-14T19:53:10.369Z,86.40
2019-05-14T19:55:43.055Z,86.40
2019-05-14T19:58:14.458Z,86.50
2019-05-14T20:00:45.970Z,86.50
2019-05-14T20:03:18.704Z,86.70
2019-05-14T20:05:50.373Z,86.80
2019-05-14T20:08:21.899Z,86.70
2019-05-14T20:10:53.476Z,86.80
2019-05-14T20:13:28.456Z,87.00
2019-05-14T20:15:59.472Z,87.00
2019-05-14T20:18:31.046Z,87.40
2019-05-14T20:21:02.355Z,87.50
2019-05-14T20:23:33.592Z,87.60
2019-05-14T20:26:05.069Z,87.50
2019-05-14T20:28:38.795Z,87.60
2019-05-14T20:31:10.697Z,87.60
2019-05-14T20:33:42.285Z,87.60
2019-05-14T20:36:14.745Z,87.10
2019-05-14T20:38:48.018Z,87.50
2019-05-14T20:41:20.198Z,87.60
2019-05-14T20:43:51.418Z,87.70
2019-05-14T20:46:22.918Z,87.60
2019-05-14T20:48:54.395Z,87.70
2019-05-14T20:51:27.555Z,87.70
2019-05-14T20:53:59.080Z,87.90
2019-05-14T20:56:30.512Z,88.00
2019-05-14T20:59:02.022Z,88.00
2019-05-14T21:01:33.282Z,88.50
2019-05-14T21:04:04.612Z,88.00
2019-05-14T21:06:35.965Z,88.10
2019-05-14T21:09:07.607Z,88.10
2019-05-14T21:11:39.005Z,88.20
2019-05-14T21:14:10.513Z,88.30
2019-05-14T21:16:42.075Z,88.30
2019-05-14T21:19:13.492Z,88.40
2019-05-14T21:21:44.749Z,88.40
2019-05-14T21:24:18.087Z,88.40
2019-05-14T21:26:50.713Z,88.50
2019-05-14T21:29:22.063Z,88.60
2019-05-14T21:31:54.437Z,88.60
2019-05-14T21:34:28.152Z,88.70
2019-05-14T21:36:59.822Z,88.60
2019-05-14T21:39:31.674Z,88.60
2019-05-14T21:42:03.032Z,88.70
2019-05-14T21:44:34.415Z,88.80
2019-05-14T21:47:05.626Z,88.80
2019-05-14T21:49:38.977Z,88.90
2019-05-14T21:52:11.245Z,88.90
2019-05-14T21:54:42.938Z,88.90
2019-05-14T21:57:14.373Z,88.90
2019-05-14T21:59:45.545Z,89.00
2019-05-14T22:02:24.472Z,88.90
2019-05-14T22:04:50.978Z,89.00
2019-05-14T22:07:23.058Z,89.10
2019-05-14T22:09:54.334Z,89.20
2019-05-14T22:12:28.164Z,89.20
2019-05-14T22:14:59.477Z,89.20
2019-05-14T22:17:30.938Z,89.10
2019-05-14T22:20:04.929Z,89.20
2019-05-14T22:22:38.854Z,89.20
2019-05-14T22:25:09.290Z,89.30
2019-05-14T22:27:40.644Z,89.30
2019-05-14T22:30:12.549Z,89.30
2019-05-14T22:32:44.426Z,89.30
2019-05-14T22:35:16.118Z,89.30
2019-05-14T22:37:48.306Z,89.40
2019-05-14T22:40:19.975Z,89.50
2019-05-14T22:42:51.541Z,89.50
2019-05-14T22:45:22.980Z,89.50
2019-05-14T22:47:54.262Z,89.60
2019-05-14T22:50:25.786Z,89.60
2019-05-14T22:52:58.401Z,89.60
2019-05-14T22:55:31.389Z,89.60
2019-05-14T22:58:03.152Z,89.60
2019-05-14T23:00:34.626Z,89.60
2019-05-14T23:03:06.217Z,89.60
2019-05-14T23:05:39.331Z,89.60
2019-05-14T23:08:10.912Z,89.60
2019-05-14T23:10:42.529Z,89.60
2019-05-14T23:13:13.829Z,89.60
2019-05-14T23:15:45.380Z,89.50
2019-05-14T23:18:18.149Z,89.50
2019-05-14T23:20:49.745Z,89.60
2019-05-14T23:23:21.224Z,89.60
2019-05-14T23:25:52.756Z,89.70
2019-05-14T23:28:24.095Z,89.70
2019-05-14T23:30:55.465Z,89.60
2019-05-14T23:33:28.806Z,89.70
2019-05-14T23:36:00.296Z,89.60
2019-05-14T23:38:31.739Z,89.60
2019-05-14T23:41:03.294Z,89.60
2019-05-14T23:43:35.067Z,89.60
2019-05-14T23:46:06.395Z,89.50
2019-05-14T23:48:39.233Z,90.00
2019-05-14T23:51:11.030Z,89.50
2019-05-14T23:53:42.765Z,89.40
2019-05-14T23:56:14.378Z,89.40
2019-05-14T23:58:54.681Z,89.50
